Time;durP1;ratioP1;P1;durP2;ratioP2;P2;SDS_P1;SDS_P2;PMS_P1;PMS_P2;Temp;Humidity;BMP_temperature;BMP_pressure;BME280_temperature;BME280_humidity;BME280_pressure;Samples;Min_cycle;Max_cycle;Signal;HPM_P1;HPM_P2
2021/12/18 05:00:29;;;;;;;32.20;11.60;;;2.50;99.70;;;;;;4915474;29;20184;-67
2021/12/18 05:02:55;;;;;;;28.70;10.17;;;2.60;99.70;;;;;;4915264;29;20262;-67
2021/12/18 05:05:22;;;;;;;22.83;9.13;;;2.60;99.70;;;;;;4914491;29;20852;-67
2021/12/18 05:07:49;;;;;;;28.13;10.20;;;2.60;99.70;;;;;;4915106;29;20450;-66
2021/12/18 05:10:16;;;;;;;27.27;10.33;;;2.50;99.70;;;;;;4915299;29;20476;-66
2021/12/18 05:12:42;;;;;;;31.33;10.27;;;2.50;99.70;;;;;;4915156;29;20501;-66
2021/12/18 05:15:10;;;;;;;26.33;9.20;;;2.50;99.70;;;;;;4915039;29;20458;-67
2021/12/18 05:17:38;;;;;;;32.10;10.17;;;2.40;99.70;;;;;;4915227;29;20867;-67
2021/12/18 05:20:06;;;;;;;28.50;9.37;;;2.50;99.70;;;;;;4914676;29;20828;-67
2021/12/18 05:22:33;;;;;;;28.50;9.80;;;2.30;99.70;;;;;;4914800;29;20481;-67
2021/12/18 05:24:59;;;;;;;23.47;8.90;;;2.30;99.70;;;;;;4914812;29;20827;-66
2021/12/18 05:27:26;;;;;;;29.53;10.33;;;2.40;99.70;;;;;;4915049;29;20837;-66
2021/12/18 05:29:53;;;;;;;27.60;10.17;;;2.50;99.70;;;;;;4915130;29;20509;-66
2021/12/18 05:32:19;;;;;;;28.73;10.50;;;2.50;99.70;;;;;;4914964;29;20472;-67
2021/12/18 05:34:48;;;;;;;29.13;9.77;;;2.70;99.70;;;;;;4914689;29;20446;-67
2021/12/18 05:37:18;;;;;;;24.47;9.20;;;2.70;99.70;;;;;;4915026;29;20454;-67
2021/12/18 05:39:46;;;;;;;28.80;9.80;;;2.70;99.70;;;;;;4914933;29;20469;-66
2021/12/18 05:42:13;;;;;;;28.30;10.40;;;2.50;99.70;;;;;;4914307;29;20470;-65
2021/12/18 05:44:40;;;;;;;27.50;10.90;;;2.60;99.70;;;;;;4914407;29;20539;-67
2021/12/18 05:47:07;;;;;;;29.30;10.20;;;2.70;99.70;;;;;;4918646;29;20462;-66
2021/12/18 05:49:34;;;;;;;27.73;9.30;;;2.60;99.70;;;;;;4918807;29;20445;-66
2021/12/18 05:52:02;;;;;;;26.90;9.70;;;2.70;99.70;;;;;;4918599;29;20474;-66
2021/12/18 05:54:34;;;;;;;27.23;9.77;;;2.70;99.70;;;;;;4917612;29;20657;-66
2021/12/18 05:57:01;;;;;;;28.83;9.83;;;2.70;99.70;;;;;;4918952;29;20557;-66
2021/12/18 05:59:28;;;;;;;27.60;9.20;;;2.50;99.70;;;;;;4918589;29;20453;-66
2021/12/18 06:01:54;;;;;;;26.10;9.70;;;2.60;99.70;;;;;;4918396;29;20488;-66
2021/12/18 06:04:21;;;;;;;25.80;8.57;;;2.70;99.70;;;;;;4946194;23;20573;-62
2021/12/18 06:06:48;;;;;;;27.23;9.03;;;2.60;99.70;;;;;;4936258;29;20448;-63
2021/12/18 06:09:16;;;;;;;24.20;8.70;;;2.50;99.70;;;;;;4936868;29;20452;-64
2021/12/18 06:11:43;;;;;;;24.17;8.60;;;2.40;99.70;;;;;;4937136;29;20471;-64
2021/12/18 06:14:10;;;;;;;24.60;8.70;;;2.40;99.70;;;;;;4936738;29;20465;-60
2021/12/18 06:16:37;;;;;;;26.67;8.90;;;2.40;99.70;;;;;;4936079;29;20971;-63
2021/12/18 06:19:03;;;;;;;23.07;8.13;;;2.60;99.70;;;;;;4937272;29;20452;-63
2021/12/18 06:21:30;;;;;;;27.33;9.00;;;2.60;99.70;;;;;;4936179;29;20455;-64
2021/12/18 06:23:57;;;;;;;21.27;8.03;;;2.70;99.70;;;;;;4936753;29;20873;-64
2021/12/18 06:26:27;;;;;;;26.67;9.03;;;2.60;99.70;;;;;;4936456;29;20886;-63
2021/12/18 06:28:55;;;;;;;23.20;8.10;;;2.60;99.70;;;;;;4936928;29;20456;-64
2021/12/18 06:31:22;;;;;;;20.90;7.70;;;2.70;99.70;;;;;;4936699;29;20544;-64
2021/12/18 06:33:49;;;;;;;23.90;8.97;;;2.80;99.70;;;;;;4936836;29;20457;-63
2021/12/18 06:36:15;;;;;;;22.70;7.63;;;2.80;99.70;;;;;;4936446;29;20456;-64
2021/12/18 06:38:42;;;;;;;24.50;8.77;;;2.80;99.70;;;;;;4936725;29;20809;-63
2021/12/18 06:41:09;;;;;;;22.53;8.37;;;2.70;99.70;;;;;;4936586;29;20517;-63
2021/12/18 06:43:37;;;;;;;22.07;7.70;;;2.70;99.70;;;;;;4936708;29;20487;-64
2021/12/18 06:46:04;;;;;;;26.40;8.20;;;2.70;99.70;;;;;;4936205;29;20480;-64
2021/12/18 06:48:31;;;;;;;24.17;8.10;;;2.80;99.70;;;;;;4936571;29;20512;-63
2021/12/18 06:50:57;;;;;;;19.63;7.30;;;2.70;99.70;;;;;;4936440;29;20457;-64
2021/12/18 06:53:24;;;;;;;22.70;7.57;;;2.70;99.70;;;;;;4936631;29;20448;-64
2021/12/18 06:55:51;;;;;;;24.70;7.90;;;2.60;99.70;;;;;;4935858;29;20855;-63
2021/12/18 06:58:17;;;;;;;22.40;8.23;;;2.70;99.70;;;;;;4936256;29;20457;-63
2021/12/18 07:00:45;;;;;;;23.30;8.00;;;2.70;99.70;;;;;;4936243;29;20453;-63
2021/12/18 07:03:12;;;;;;;22.23;7.73;;;2.60;99.70;;;;;;4936348;29;20489;-63
2021/12/18 07:05:39;;;;;;;22.70;8.23;;;2.70;99.70;;;;;;4935802;29;20484;-64
2021/12/18 07:08:06;;;;;;;23.60;8.17;;;2.70;99.70;;;;;;4936280;29;20449;-63
2021/12/18 07:10:34;;;;;;;21.00;7.50;;;2.80;99.70;;;;;;4936259;29;20830;-63
2021/12/18 07:13:01;;;;;;;25.80;8.57;;;2.80;99.70;;;;;;4936205;29;20887;-63
2021/12/18 07:15:28;;;;;;;25.47;7.90;;;3.00;99.70;;;;;;4935625;29;20899;-63
2021/12/18 07:17:56;;;;;;;21.17;7.90;;;2.90;99.70;;;;;;4936272;29;20455;-65
2021/12/18 07:20:23;;;;;;;24.30;8.20;;;2.90;99.70;;;;;;4935365;29;20453;-63
2021/12/18 07:22:50;;;;;;;29.40;8.87;;;2.80;99.70;;;;;;4935898;29;20968;-63
2021/12/18 07:25:16;;;;;;;22.80;7.70;;;2.70;99.70;;;;;;4935523;29;20472;-63
2021/12/18 07:27:43;;;;;;;27.43;9.77;;;2.90;99.70;;;;;;4935501;29;20453;-64
2021/12/18 07:30:12;;;;;;;25.43;8.27;;;2.90;99.70;;;;;;4935953;29;20453;-63
2021/12/18 07:32:39;;;;;;;23.93;8.47;;;2.80;99.70;;;;;;4935894;29;20481;-64
2021/12/18 07:35:08;;;;;;;27.07;8.47;;;2.80;99.70;;;;;;4935172;29;20560;-64
2021/12/18 07:37:35;;;;;;;20.80;7.80;;;2.80;99.70;;;;;;4935870;29;20441;-64
2021/12/18 07:40:03;;;;;;;24.27;8.33;;;2.90;99.70;;;;;;4935498;29;20948;-64
2021/12/18 07:42:30;;;;;;;22.60;8.10;;;2.80;99.70;;;;;;4935683;29;20457;-63
2021/12/18 07:44:58;;;;;;;23.00;7.83;;;2.80;99.70;;;;;;4935089;29;20494;-63
2021/12/18 07:47:25;;;;;;;27.90;8.30;;;2.70;99.70;;;;;;4935627;29;20460;-64
2021/12/18 07:49:52;;;;;;;24.10;8.17;;;2.70;99.70;;;;;;4935579;29;20508;-64
2021/12/18 07:52:21;;;;;;;22.87;8.13;;;2.80;99.70;;;;;;4935818;29;20457;-64
2021/12/18 07:54:48;;;;;;;22.73;8.67;;;2.80;99.70;;;;;;4935157;29;20473;-64
2021/12/18 07:57:15;;;;;;;22.00;8.03;;;2.80;99.70;;;;;;4935400;29;20453;-63
2021/12/18 07:59:41;;;;;;;22.30;7.93;;;2.80;99.70;;;;;;4935591;29;20453;-63
2021/12/18 08:02:08;;;;;;;23.40;8.37;;;2.80;99.70;;;;;;4935246;29;20457;-64
2021/12/18 08:04:35;;;;;;;28.87;9.00;;;2.80;99.70;;;;;;4934704;29;20489;-63
2021/12/18 08:07:03;;;;;;;22.13;8.40;;;2.80;99.70;;;;;;4935068;29;20461;-64
2021/12/18 08:09:31;;;;;;;22.70;8.20;;;2.70;99.70;;;;;;4934391;29;20819;-64
2021/12/18 08:11:57;;;;;;;21.70;8.47;;;2.80;99.70;;;;;;4934945;29;20504;-64
2021/12/18 08:14:24;;;;;;;25.97;8.87;;;2.80;99.70;;;;;;4934802;29;20472;-63
2021/12/18 08:16:51;;;;;;;21.07;8.00;;;2.80;99.70;;;;;;4935016;29;20528;-64
2021/12/18 08:19:18;;;;;;;22.80;8.63;;;2.90;99.70;;;;;;4935186;29;20448;-63
2021/12/18 08:21:44;;;;;;;27.87;9.87;;;2.90;99.70;;;;;;4933925;29;20941;-62
2021/12/18 08:24:11;;;;;;;26.77;8.90;;;2.80;99.70;;;;;;4934482;29;20493;-62
2021/12/18 08:26:39;;;;;;;25.93;9.97;;;2.80;99.70;;;;;;4934608;29;20449;-64
2021/12/18 08:29:05;;;;;;;21.23;7.17;;;2.70;99.70;;;;;;4935006;29;20453;-64
2021/12/18 08:31:32;;;;;;;23.53;8.40;;;2.80;99.70;;;;;;4934774;29;20457;-64
2021/12/18 08:33:59;;;;;;;20.67;7.80;;;3.00;99.70;;;;;;4934639;29;20952;-62
2021/12/18 08:36:26;;;;;;;22.13;8.70;;;3.00;99.70;;;;;;4934468;29;20942;-64
2021/12/18 08:38:52;;;;;;;24.80;8.47;;;3.00;99.70;;;;;;4934663;29;20877;-64
2021/12/18 08:41:20;;;;;;;28.57;9.90;;;3.00;99.70;;;;;;4934547;29;20461;-64
2021/12/18 08:43:48;;;;;;;23.53;8.67;;;3.00;99.70;;;;;;4934545;29;20495;-63
2021/12/18 08:46:15;;;;;;;20.70;7.83;;;3.00;99.70;;;;;;4934387;29;20536;-63
2021/12/18 08:48:42;;;;;;;22.57;8.50;;;2.90;99.70;;;;;;4934443;29;21012;-63
2021/12/18 08:51:09;;;;;;;22.27;8.63;;;2.80;99.70;;;;;;4934527;29;20505;-63
2021/12/18 08:53:35;;;;;;;26.37;9.60;;;2.80;99.70;;;;;;4934552;29;20472;-64
2021/12/18 08:56:02;;;;;;;24.07;9.20;;;3.00;99.70;;;;;;4933786;29;20469;-64
2021/12/18 08:58:29;;;;;;;27.43;9.60;;;3.10;99.70;;;;;;4934366;29;20456;-63
2021/12/18 09:00:58;;;;;;;22.83;8.70;;;3.10;99.70;;;;;;4934448;29;20488;-64
2021/12/18 09:03:25;;;;;;;27.90;8.80;;;3.50;99.70;;;;;;4934699;29;20833;-64
2021/12/18 09:05:52;;;;;;;22.40;8.20;;;3.30;99.70;;;;;;4933582;29;20476;-63
2021/12/18 09:08:18;;;;;;;18.87;7.10;;;3.20;99.70;;;;;;4934400;29;20465;-63
2021/12/18 09:10:45;;;;;;;25.13;8.40;;;3.20;99.70;;;;;;4931924;29;20469;-64
2021/12/18 09:13:13;;;;;;;23.60;8.27;;;3.10;99.70;;;;;;4924648;29;20944;-63
2021/12/18 09:15:39;;;;;;;20.50;7.07;;;3.00;99.70;;;;;;4933588;29;21000;-62
2021/12/18 09:18:08;;;;;;;22.90;8.40;;;3.10;99.70;;;;;;4934031;29;20445;-64
2021/12/18 09:20:34;;;;;;;22.10;7.90;;;3.00;99.70;;;;;;4933159;29;20472;-64
2021/12/18 09:23:02;;;;;;;22.57;8.03;;;3.00;99.70;;;;;;4933680;29;20872;-62
2021/12/18 09:25:29;;;;;;;21.70;7.63;;;2.90;99.70;;;;;;4933539;29;20574;-63
2021/12/18 09:27:56;;;;;;;23.03;8.10;;;3.00;99.70;;;;;;4934235;29;20500;-63
2021/12/18 09:30:24;;;;;;;23.67;8.13;;;2.90;99.70;;;;;;4933934;29;20539;-62
2021/12/18 09:32:51;;;;;;;19.00;7.50;;;2.90;99.70;;;;;;4933849;29;20524;-63
2021/12/18 09:35:21;;;;;;;19.27;7.87;;;2.80;99.70;;;;;;4931595;29;20476;-64
2021/12/18 09:37:47;;;;;;;23.90;8.30;;;3.00;99.70;;;;;;4931787;29;20464;-64
2021/12/18 09:40:17;;;;;;;19.80;7.30;;;3.00;99.70;;;;;;4928079;29;20453;-63
2021/12/18 09:42:43;;;;;;;19.67;7.10;;;2.90;99.70;;;;;;4933516;29;21000;-63
2021/12/18 09:45:12;;;;;;;21.60;8.20;;;3.00;99.70;;;;;;4933438;29;20489;-62
2021/12/18 09:47:39;;;;;;;22.57;8.40;;;3.10;99.70;;;;;;4933820;29;20448;-63
2021/12/18 09:50:07;;;;;;;23.37;8.33;;;3.10;99.70;;;;;;4933868;29;20476;-62
2021/12/18 09:52:35;;;;;;;23.57;8.67;;;3.00;99.70;;;;;;4933680;29;20966;-62
2021/12/18 09:55:04;;;;;;;24.47;8.20;;;2.90;99.70;;;;;;4933568;29;20893;-63
2021/12/18 09:57:31;;;;;;;17.80;6.80;;;3.00;99.70;;;;;;4933526;29;20818;-64
2021/12/18 09:59:58;;;;;;;21.00;8.10;;;2.90;99.70;;;;;;4933811;29;20476;-65
2021/12/18 10:02:24;;;;;;;22.53;8.40;;;3.00;99.70;;;;;;4933349;29;20444;-63
2021/12/18 10:04:51;;;;;;;28.83;9.87;;;3.20;99.70;;;;;;4933043;29;20497;-63
2021/12/18 10:07:20;;;;;;;29.20;10.70;;;3.00;99.70;;;;;;4933665;29;20552;-64
2021/12/18 10:09:50;;;;;;;29.20;10.87;;;3.00;99.70;;;;;;4933658;29;21062;-62
2021/12/18 10:12:19;;;;;;;25.77;8.90;;;3.20;99.70;;;;;;4933615;29;20456;-63
2021/12/18 10:14:48;;;;;;;21.10;8.90;;;3.40;99.70;;;;;;4933047;29;20465;-63
2021/12/18 10:17:25;;;;;;;22.50;8.97;;;3.30;99.70;;;;;;4933707;29;20457;-63
2021/12/18 10:19:53;;;;;;;23.03;7.73;;;3.50;99.70;;;;;;4933795;29;20954;-64
2021/12/18 10:22:21;;;;;;;18.90;6.83;;;3.50;99.70;;;;;;4932119;29;20548;-63
2021/12/18 10:25:04;;;;;;;17.80;7.00;;;3.40;99.70;;;;;;4931020;29;20893;-64
2021/12/18 10:27:31;;;;;;;20.70;8.70;;;3.40;99.70;;;;;;4932878;29;20449;-63
2021/12/18 10:30:17;;;;;;;18.60;7.17;;;3.30;99.70;;;;;;4933358;29;20480;-63
2021/12/18 10:33:04;;;;;;;21.17;8.07;;;3.20;99.70;;;;;;4922206;29;20449;-63
2021/12/18 10:35:39;;;;;;;20.90;8.17;;;3.00;99.70;;;;;;4936183;29;20472;-63
2021/12/18 10:38:06;;;;;;;23.63;8.13;;;3.10;99.70;;;;;;4936243;29;20452;-63
2021/12/18 10:40:45;;;;;;;25.07;9.67;;;3.10;99.70;;;;;;4936103;29;20457;-63
2021/12/18 10:43:13;;;;;;;28.60;10.80;;;3.10;99.70;;;;;;4936497;29;20965;-64
2021/12/18 10:45:39;;;;;;;29.57;10.50;;;3.10;99.70;;;;;;4935966;29;20885;-63
2021/12/18 10:48:08;;;;;;;24.97;9.10;;;3.20;99.70;;;;;;4936558;29;20484;-63
2021/12/18 10:50:42;;;;;;;23.30;9.00;;;3.30;99.70;;;;;;4931197;29;20496;-63
2021/12/18 10:53:14;;;;;;;20.93;7.90;;;3.30;99.70;;;;;;4935208;29;20468;-62
2021/12/18 10:55:46;;;;;;;19.97;8.10;;;3.30;99.70;;;;;;4931348;29;20484;-63
2021/12/18 10:58:20;;;;;;;21.13;8.60;;;3.60;99.70;;;;;;4932633;29;20476;-63
2021/12/18 11:00:53;;;;;;;24.20;9.40;;;3.50;99.70;;;;;;4932843;29;20449;-63
2021/12/18 11:03:24;;;;;;;23.77;9.07;;;3.60;99.70;;;;;;4932374;29;20461;-63
2021/12/18 11:06:21;;;;;;;24.77;9.50;;;3.80;99.70;;;;;;4935322;29;20493;-64
2021/12/18 11:08:52;;;;;;;22.73;8.00;;;3.80;99.70;;;;;;4934989;29;20960;-63
2021/12/18 11:14:08;;;;;;;22.40;8.13;;;3.60;99.70;;;;;;4944288;29;20467;-63
2021/12/18 11:16:36;;;;;;;21.83;7.93;;;3.80;99.70;;;;;;4944215;29;20453;-64
2021/12/18 11:19:04;;;;;;;23.70;8.97;;;3.90;99.70;;;;;;4938764;29;20461;-64
2021/12/18 11:21:31;;;;;;;22.80;8.83;;;3.90;99.70;;;;;;4937503;29;20476;-63
2021/12/18 11:24:04;;;;;;;27.83;9.90;;;3.80;99.70;;;;;;4933831;29;20898;-63
2021/12/18 11:26:41;;;;;;;24.53;8.80;;;3.80;99.70;;;;;;4931362;29;20447;-64
2021/12/18 11:29:12;;;;;;;25.40;9.80;;;3.80;99.70;;;;;;4935840;29;20474;-63
2021/12/18 11:31:39;;;;;;;26.17;10.20;;;3.80;99.70;;;;;;4935851;29;20466;-64
2021/12/18 11:34:07;;;;;;;25.93;10.30;;;3.90;99.70;;;;;;4941373;28;20472;-63
2021/12/18 11:36:34;;;;;;;24.07;10.17;;;3.90;99.70;;;;;;4943545;29;20448;-62
2021/12/18 11:39:01;;;;;;;25.27;9.80;;;4.00;99.70;;;;;;4944540;29;20481;-64
2021/12/18 11:41:28;;;;;;;23.83;9.37;;;4.30;99.70;;;;;;4941970;29;20448;-63
2021/12/18 11:43:56;;;;;;;28.17;10.20;;;3.90;99.70;;;;;;4944001;28;20441;-64
2021/12/18 11:46:31;;;;;;;23.70;10.13;;;3.80;99.70;;;;;;4945448;29;20567;-62
2021/12/18 11:49:00;;;;;;;26.63;10.03;;;3.80;99.70;;;;;;4934131;29;20473;-64
2021/12/18 11:51:26;;;;;;;25.67;10.00;;;3.80;99.70;;;;;;4934180;29;20453;-61
2021/12/18 11:53:53;;;;;;;23.70;8.97;;;3.80;99.70;;;;;;4934554;29;20474;-60
2021/12/18 11:56:20;;;;;;;27.43;10.23;;;3.80;99.70;;;;;;4933135;29;20472;-64
2021/12/18 11:58:49;;;;;;;25.47;9.60;;;3.70;99.70;;;;;;4940260;29;20448;-63
2021/12/18 12:01:20;;;;;;;29.03;10.63;;;3.70;99.70;;;;;;4939477;29;20488;-61
2021/12/18 12:03:56;;;;;;;23.60;9.67;;;3.90;99.70;;;;;;4944340;28;20438;-64
2021/12/18 12:06:30;;;;;;;25.57;9.57;;;4.10;99.70;;;;;;4940238;29;20483;-63
2021/12/18 12:09:33;;;;;;;27.33;10.33;;;4.00;99.70;;;;;;4939958;29;20852;-62
2021/12/18 12:12:01;;;;;;;24.40;9.80;;;4.00;99.70;;;;;;4901570;29;20442;-63
2021/12/18 12:14:29;;;;;;;23.13;9.87;;;4.10;99.70;;;;;;4932853;28;20491;-63
2021/12/18 12:17:12;;;;;;;22.70;9.37;;;4.10;99.70;;;;;;4944830;29;20444;-64
2021/12/18 12:19:52;;;;;;;24.20;9.37;;;4.50;99.70;;;;;;4940851;29;20460;-62
2021/12/18 12:22:37;;;;;;;25.10;9.60;;;4.60;99.70;;;;;;4943463;28;20459;-63
2021/12/18 12:25:06;;;;;;;25.43;9.27;;;4.90;99.70;;;;;;4940166;28;20476;-64
2021/12/18 12:27:36;;;;;;;27.70;9.13;;;5.00;99.70;;;;;;4937811;29;20953;-61
2021/12/18 12:30:07;;;;;;;23.30;9.67;;;5.10;99.70;;;;;;4937012;29;20468;-62
2021/12/18 12:32:36;;;;;;;28.90;10.40;;;4.70;99.70;;;;;;4943622;28;20450;-62
2021/12/18 12:35:07;;;;;;;30.97;10.60;;;4.40;99.70;;;;;;4948657;28;20484;-64
2021/12/18 12:37:39;;;;;;;26.27;10.50;;;4.40;99.70;;;;;;4942495;29;20449;-64
2021/12/18 12:40:10;;;;;;;27.13;11.13;;;4.40;99.70;;;;;;4932118;29;20455;-64
2021/12/18 12:42:41;;;;;;;29.40;10.73;;;4.30;99.70;;;;;;4934317;29;20544;-63
2021/12/18 12:45:13;;;;;;;26.37;10.83;;;4.20;99.70;;;;;;4931578;29;20943;-64
2021/12/18 12:47:52;;;;;;;25.77;10.20;;;4.20;99.70;;;;;;4933772;29;20487;-63
2021/12/18 12:50:30;;;;;;;28.27;10.60;;;4.00;99.70;;;;;;4927182;29;20449;-63
2021/12/18 12:52:59;;;;;;;23.73;10.60;;;4.10;99.70;;;;;;4934385;29;20461;-63
2021/12/18 12:55:28;;;;;;;26.60;10.73;;;3.90;99.70;;;;;;4933048;29;20540;-64
2021/12/18 12:57:57;;;;;;;22.70;9.80;;;3.70;99.70;;;;;;4933068;29;20472;-63
2021/12/18 13:00:44;;;;;;;26.37;10.83;;;3.90;99.70;;;;;;4931198;29;20825;-63
2021/12/18 13:03:21;;;;;;;28.20;9.77;;;3.90;99.70;;;;;;4940030;29;20952;-63
2021/12/18 13:05:52;;;;;;;29.93;11.83;;;3.80;99.70;;;;;;4933012;29;21061;-64
2021/12/18 13:08:20;;;;;;;27.53;10.53;;;3.90;99.70;;;;;;4933760;29;20866;-62
2021/12/18 13:10:47;;;;;;;29.77;10.40;;;4.00;99.70;;;;;;4929163;29;20476;-63
2021/12/18 13:13:16;;;;;;;26.90;10.03;;;3.80;99.70;;;;;;4924336;29;20511;-61
2021/12/18 13:15:48;;;;;;;26.50;10.30;;;3.80;99.70;;;;;;4926833;29;20478;-63
2021/12/18 13:18:17;;;;;;;32.87;11.57;;;3.80;99.70;;;;;;4930102;29;20900;-63
2021/12/18 13:20:45;;;;;;;27.90;11.37;;;4.00;99.70;;;;;;4932397;29;20441;-63
2021/12/18 13:23:17;;;;;;;27.00;10.93;;;3.80;99.70;;;;;;4927403;29;20512;-62
2021/12/18 13:25:49;;;;;;;28.70;10.70;;;3.80;99.70;;;;;;4930017;29;20588;-63
2021/12/18 13:28:16;;;;;;;30.73;11.20;;;3.70;99.70;;;;;;4926390;29;20831;-64
2021/12/18 13:30:43;;;;;;;28.97;10.73;;;4.00;99.70;;;;;;4933319;29;20437;-62
2021/12/18 13:33:10;;;;;;;28.53;11.30;;;4.10;99.70;;;;;;4932673;29;20448;-63
2021/12/18 13:35:39;;;;;;;27.27;10.70;;;4.10;99.70;;;;;;4932331;29;20540;-62
2021/12/18 13:38:08;;;;;;;43.97;16.10;;;3.90;99.70;;;;;;4933848;29;20555;-63
2021/12/18 13:40:38;;;;;;;35.80;13.20;;;4.00;99.70;;;;;;4933364;29;20453;-63
2021/12/18 13:43:09;;;;;;;31.77;11.53;;;4.00;99.70;;;;;;4933859;29;20457;-62
2021/12/18 13:45:50;;;;;;;27.03;10.70;;;3.90;99.70;;;;;;4932615;29;20485;-62
2021/12/18 13:48:18;;;;;;;32.77;11.93;;;3.90;99.70;;;;;;4932948;29;20468;-64
2021/12/18 13:50:52;;;;;;;29.93;11.13;;;3.80;99.70;;;;;;4932040;29;20531;-62
2021/12/18 13:53:19;;;;;;;31.37;11.20;;;3.80;99.70;;;;;;4926653;29;20532;-62
2021/12/18 13:55:55;;;;;;;32.70;10.47;;;3.80;99.70;;;;;;4932845;29;20492;-62
2021/12/18 13:58:25;;;;;;;30.30;11.10;;;3.90;99.70;;;;;;4933845;29;20480;-63
2021/12/18 14:01:02;;;;;;;28.00;11.17;;;3.80;99.70;;;;;;4933354;29;20457;-64
2021/12/18 14:03:31;;;;;;;28.80;12.00;;;3.80;99.70;;;;;;4985574;23;20499;-61
2021/12/18 14:06:02;;;;;;;34.20;11.23;;;3.80;99.70;;;;;;4952086;28;20944;-64
2021/12/18 14:08:29;;;;;;;28.03;11.53;;;3.80;99.70;;;;;;4953624;29;20456;-57
2021/12/18 14:11:01;;;;;;;32.07;11.70;;;3.80;99.70;;;;;;4950827;28;20460;-62
2021/12/18 14:13:28;;;;;;;33.10;11.80;;;3.80;99.70;;;;;;4935817;29;20891;-63
2021/12/18 14:16:05;;;;;;;33.37;11.90;;;4.10;99.70;;;;;;4935919;29;20519;-63
2021/12/18 14:18:35;;;;;;;28.43;11.27;;;4.00;99.70;;;;;;4928966;29;20475;-61
2021/12/18 14:21:04;;;;;;;28.60;10.83;;;4.20;99.70;;;;;;4932959;29;20961;-60
2021/12/18 14:23:33;;;;;;;28.07;11.37;;;4.30;99.70;;;;;;4935492;29;20465;-62
2021/12/18 14:26:25;;;;;;;30.43;11.00;;;4.30;99.70;;;;;;4940054;29;20480;-64
2021/12/18 14:28:54;;;;;;;25.20;10.93;;;4.20;99.70;;;;;;4934527;29;20460;-62
2021/12/18 14:31:33;;;;;;;27.90;11.23;;;4.20;99.70;;;;;;4939623;29;20464;-63
2021/12/18 14:34:02;;;;;;;25.47;10.80;;;4.10;99.70;;;;;;4930460;29;20483;-62
2021/12/18 14:36:49;;;;;;;25.47;10.13;;;4.10;99.70;;;;;;4936152;29;20539;-65
2021/12/18 14:39:25;;;;;;;26.33;10.10;;;4.10;99.70;;;;;;4936084;29;20452;-64
2021/12/18 14:41:58;;;;;;;25.47;10.30;;;4.20;99.70;;;;;;4929658;29;20472;-63
2021/12/18 14:44:26;;;;;;;24.10;9.70;;;4.10;99.70;;;;;;4937774;29;20479;-65
2021/12/18 14:47:20;;;;;;;22.77;9.53;;;4.00;99.70;;;;;;4934534;29;20862;-62
2021/12/18 14:50:10;;;;;;;23.83;10.13;;;4.00;99.70;;;;;;4934832;29;20883;-63
2021/12/18 14:53:13;;;;;;;26.57;10.47;;;3.90;99.70;;;;;;4931711;29;20487;-61
2021/12/18 14:55:47;;;;;;;24.67;9.73;;;3.80;99.70;;;;;;4872124;29;20448;-63
2021/12/18 14:58:17;;;;;;;26.40;10.40;;;3.70;99.70;;;;;;4924127;29;20464;-64
2021/12/18 15:00:50;;;;;;;24.13;10.67;;;3.80;99.70;;;;;;4940463;29;20453;-63
2021/12/18 15:03:20;;;;;;;23.90;10.30;;;3.70;99.70;;;;;;4929387;29;20497;-65
2021/12/18 15:05:57;;;;;;;28.30;11.33;;;3.70;99.70;;;;;;4939899;29;20502;-60
2021/12/18 15:08:37;;;;;;;27.83;10.80;;;3.70;99.70;;;;;;4931988;29;20986;-61
2021/12/18 15:11:17;;;;;;;28.83;11.30;;;3.70;99.70;;;;;;4930713;29;20497;-63
2021/12/18 15:13:47;;;;;;;28.00;11.63;;;3.60;99.70;;;;;;4933968;29;20488;-62
2021/12/18 15:16:17;;;;;;;26.77;11.27;;;3.50;99.70;;;;;;4928522;29;20837;-58
2021/12/18 15:18:47;;;;;;;28.00;11.43;;;3.40;99.70;;;;;;4933618;29;20823;-63
2021/12/18 15:21:16;;;;;;;26.93;11.10;;;3.40;99.70;;;;;;4926903;29;20472;-64
2021/12/18 15:23:44;;;;;;;27.83;10.37;;;3.40;99.70;;;;;;4925987;29;20540;-63
2021/12/18 15:26:11;;;;;;;27.17;10.70;;;3.50;99.70;;;;;;4924649;29;21193;-63
2021/12/18 15:28:38;;;;;;;30.33;11.73;;;3.50;99.70;;;;;;4925495;29;20453;-61
2021/12/18 15:31:05;;;;;;;30.23;12.10;;;3.40;99.70;;;;;;4926620;29;20903;-65
2021/12/18 15:33:32;;;;;;;32.17;11.90;;;3.40;99.70;;;;;;4937242;29;20475;-58
2021/12/18 15:35:59;;;;;;;29.27;11.80;;;3.40;99.70;;;;;;4931362;29;20496;-59
2021/12/18 15:38:26;;;;;;;29.93;11.53;;;3.40;99.70;;;;;;4929227;29;20453;-60
2021/12/18 15:40:55;;;;;;;32.43;11.93;;;3.50;99.70;;;;;;4928566;29;20501;-63
2021/12/18 15:43:21;;;;;;;33.47;12.00;;;3.50;99.70;;;;;;4936677;29;20520;-62
2021/12/18 15:45:48;;;;;;;32.27;13.03;;;3.50;99.70;;;;;;4937821;29;20487;-65
2021/12/18 15:48:15;;;;;;;34.97;13.03;;;3.60;99.70;;;;;;4923460;29;20866;-64
2021/12/18 15:50:43;;;;;;;33.13;12.47;;;3.50;99.70;;;;;;4926701;29;21043;-62
2021/12/18 15:53:10;;;;;;;33.13;13.43;;;3.50;99.70;;;;;;4930455;29;20477;-66
2021/12/18 15:55:37;;;;;;;35.20;12.80;;;3.50;99.70;;;;;;4925859;29;21938;-66
2021/12/18 15:58:06;;;;;;;32.53;12.53;;;3.50;99.70;;;;;;4926100;29;20445;-61
2021/12/18 16:00:37;;;;;;;34.60;13.53;;;3.50;99.70;;;;;;4926895;29;20960;-64
2021/12/18 16:03:05;;;;;;;32.93;12.70;;;3.50;99.70;;;;;;4925376;29;20482;-63
2021/12/18 16:05:33;;;;;;;41.47;14.63;;;3.60;99.70;;;;;;4925934;29;20445;-61
2021/12/18 16:08:01;;;;;;;30.70;12.37;;;3.50;99.70;;;;;;4923823;29;20468;-64
2021/12/18 16:10:29;;;;;;;37.43;13.80;;;3.50;99.70;;;;;;4929868;29;20449;-62
2021/12/18 16:12:55;;;;;;;35.30;12.50;;;3.50;99.70;;;;;;4928746;29;20469;-65
2021/12/18 16:15:23;;;;;;;35.60;13.97;;;3.50;99.70;;;;;;4928314;29;20453;-61
2021/12/18 16:17:51;;;;;;;38.43;14.70;;;3.50;99.70;;;;;;4927569;29;20454;-63
2021/12/18 16:20:18;;;;;;;38.00;14.10;;;3.60;99.70;;;;;;4928461;29;20469;-65
2021/12/18 16:22:48;;;;;;;36.97;13.83;;;3.50;99.70;;;;;;4928298;29;20465;-60
2021/12/18 16:25:15;;;;;;;34.97;13.50;;;3.60;99.70;;;;;;4931772;29;20449;-61
2021/12/18 16:27:43;;;;;;;35.17;13.60;;;3.50;99.70;;;;;;4931641;29;20495;-63
2021/12/18 16:30:12;;;;;;;36.27;13.90;;;3.50;99.70;;;;;;4942175;28;20536;-61
2021/12/18 16:32:40;;;;;;;38.13;14.90;;;3.50;99.70;;;;;;4940124;29;20480;-68
2021/12/18 16:35:09;;;;;;;42.00;15.00;;;3.50;99.70;;;;;;4934608;29;20905;-62
2021/12/18 16:37:36;;;;;;;34.50;14.30;;;3.50;99.70;;;;;;4934336;29;20461;-59
2021/12/18 16:40:05;;;;;;;39.07;14.97;;;3.40;99.70;;;;;;4933288;29;20475;-62
2021/12/18 16:42:33;;;;;;;39.97;14.10;;;3.40;99.70;;;;;;4926876;28;20834;-62
2021/12/18 16:45:02;;;;;;;37.47;14.80;;;3.30;99.70;;;;;;4939083;29;20503;-61
2021/12/18 16:47:29;;;;;;;37.67;15.47;;;3.30;99.70;;;;;;4924009;29;20485;-60
2021/12/18 16:49:57;;;;;;;42.40;14.73;;;3.40;99.70;;;;;;4934521;29;20465;-60
2021/12/18 16:52:26;;;;;;;42.60;15.10;;;3.30;99.70;;;;;;4930027;29;20492;-59
2021/12/18 16:54:54;;;;;;;40.60;14.73;;;3.30;99.70;;;;;;4928303;29;20445;-57
2021/12/18 16:57:21;;;;;;;40.27;14.93;;;3.30;99.70;;;;;;4932284;29;20441;-58
2021/12/18 16:59:49;;;;;;;41.23;15.33;;;3.20;99.70;;;;;;4930855;29;21020;-64
2021/12/18 17:02:16;;;;;;;44.60;15.80;;;3.20;99.70;;;;;;4933907;29;20843;-62
2021/12/18 17:04:46;;;;;;;44.37;15.10;;;3.30;99.70;;;;;;4930095;29;20456;-57
2021/12/18 17:07:15;;;;;;;38.67;14.83;;;3.40;99.70;;;;;;4931539;29;20477;-62
2021/12/18 17:09:42;;;;;;;53.63;17.43;;;3.40;99.70;;;;;;4929718;29;20445;-61
2021/12/18 17:12:10;;;;;;;40.63;14.67;;;3.40;99.70;;;;;;4933102;29;20829;-60
2021/12/18 17:14:36;;;;;;;47.27;16.13;;;3.40;99.70;;;;;;4928921;29;20501;-64
2021/12/18 17:17:04;;;;;;;44.80;16.27;;;3.20;99.70;;;;;;4933406;29;20945;-62
2021/12/18 17:19:30;;;;;;;41.17;14.30;;;3.20;99.70;;;;;;4928988;29;20938;-61
2021/12/18 17:21:57;;;;;;;40.27;15.30;;;3.30;99.70;;;;;;4933423;29;20523;-65
2021/12/18 17:24:25;;;;;;;38.43;13.80;;;3.30;99.70;;;;;;4928582;29;20827;-60
2021/12/18 17:26:53;;;;;;;43.33;15.23;;;3.30;99.70;;;;;;4933711;29;20484;-62
2021/12/18 17:29:20;;;;;;;38.10;14.20;;;3.40;99.70;;;;;;4929456;29;20464;-63
2021/12/18 17:31:47;;;;;;;39.30;14.57;;;3.40;99.70;;;;;;4931978;29;20467;-60
2021/12/18 17:34:14;;;;;;;43.90;16.20;;;3.40;99.70;;;;;;4928872;29;20465;-57
2021/12/18 17:36:41;;;;;;;41.20;15.77;;;3.50;99.70;;;;;;4931752;29;20442;-64
2021/12/18 17:39:07;;;;;;;39.13;14.03;;;3.50;99.70;;;;;;4931232;29;20456;-60
2021/12/18 17:41:35;;;;;;;42.80;16.97;;;3.40;99.70;;;;;;4950368;28;20453;-60
2021/12/18 17:44:04;;;;;;;41.63;15.00;;;3.40;99.70;;;;;;4944316;28;20536;-60
2021/12/18 17:46:33;;;;;;;45.10;16.57;;;3.30;99.70;;;;;;4942984;28;20575;-61
2021/12/18 17:49:00;;;;;;;46.93;18.10;;;3.30;99.70;;;;;;4939554;29;20556;-62
2021/12/18 17:51:27;;;;;;;38.43;14.07;;;3.30;99.70;;;;;;4942100;29;20452;-60
2021/12/18 17:53:53;;;;;;;42.97;16.30;;;3.30;99.70;;;;;;4941814;29;20463;-63
2021/12/18 17:56:20;;;;;;;48.10;18.47;;;3.20;99.70;;;;;;4940656;29;20448;-61